sensor_id;sensor_type;location;lat;lon;timestamp;P1;durP1;ratioP1;P2;durP2;ratioP2
6533;SDS011;3300;42.698;23.332;2023-10-13T00:01:20;11.57;;;9.70;;
6533;SDS011;3300;42.698;23.332;2023-10-13T00:03:47;12.03;;;9.70;;
6533;SDS011;3300;42.698;23.332;2023-10-13T00:06:13;11.17;;;9.37;;
6533;SDS011;3300;42.698;23.332;2023-10-13T00:08:40;11.60;;;9.50;;
6533;SDS011;3300;42.698;23.332;2023-10-13T00:11:11;13.33;;;10.10;;
6533;SDS011;3300;42.698;23.332;2023-10-13T00:13:39;13.50;;;10.43;;
6533;SDS011;3300;42.698;23.332;2023-10-13T00:16:15;12.00;;;9.73;;
6533;SDS011;3300;42.698;23.332;2023-10-13T00:18:43;13.37;;;10.27;;
6533;SDS011;3300;42.698;23.332;2023-10-13T00:21:10;12.00;;;9.83;;
6533;SDS011;3300;42.698;23.332;2023-10-13T00:23:41;13.37;;;9.77;;
6533;SDS011;3300;42.698;23.332;2023-10-13T00:26:17;12.00;;;10.00;;
6533;SDS011;3300;42.698;23.332;2023-10-13T00:28:50;11.87;;;9.83;;
6533;SDS011;3300;42.698;23.332;2023-10-13T00:31:24;12.83;;;10.30;;
6533;SDS011;3300;42.698;23.332;2023-10-13T00:33:57;12.20;;;9.60;;
6533;SDS011;3300;42.698;23.332;2023-10-13T00:36:27;13.57;;;9.80;;
6533;SDS011;3300;42.698;23.332;2023-10-13T00:38:57;11.20;;;9.50;;
6533;SDS011;3300;42.698;23.332;2023-10-13T00:41:24;12.70;;;10.07;;
6533;SDS011;3300;42.698;23.332;2023-10-13T00:44:14;12.50;;;10.17;;
6533;SDS011;3300;42.698;23.332;2023-10-13T00:46:41;12.60;;;10.03;;
6533;SDS011;3300;42.698;23.332;2023-10-13T00:49:10;12.37;;;9.97;;
6533;SDS011;3300;42.698;23.332;2023-10-13T00:51:40;13.23;;;10.33;;
6533;SDS011;3300;42.698;23.332;2023-10-13T00:54:12;13.47;;;10.50;;
6533;SDS011;3300;42.698;23.332;2023-10-13T00:56:38;12.83;;;10.70;;
6533;SDS011;3300;42.698;23.332;2023-10-13T00:59:16;12.93;;;10.30;;
6533;SDS011;3300;42.698;23.332;2023-10-13T01:01:42;11.10;;;9.63;;
6533;SDS011;3300;42.698;23.332;2023-10-13T01:04:09;12.57;;;10.10;;
6533;SDS011;3300;42.698;23.332;2023-10-13T01:06:38;12.03;;;10.23;;
6533;SDS011;3300;42.698;23.332;2023-10-13T01:09:05;12.47;;;10.50;;
6533;SDS011;3300;42.698;23.332;2023-10-13T01:11:39;12.30;;;10.40;;
6533;SDS011;3300;42.698;23.332;2023-10-13T01:14:05;11.13;;;10.03;;
6533;SDS011;3300;42.698;23.332;2023-10-13T01:16:34;12.37;;;9.90;;
6533;SDS011;3300;42.698;23.332;2023-10-13T01:19:01;11.43;;;10.00;;
6533;SDS011;3300;42.698;23.332;2023-10-13T01:21:30;13.13;;;10.30;;
6533;SDS011;3300;42.698;23.332;2023-10-13T01:23:59;12.50;;;10.03;;
6533;SDS011;3300;42.698;23.332;2023-10-13T01:26:26;14.47;;;10.97;;
6533;SDS011;3300;42.698;23.332;2023-10-13T01:28:56;13.27;;;10.73;;
6533;SDS011;3300;42.698;23.332;2023-10-13T01:31:23;12.43;;;9.90;;
6533;SDS011;3300;42.698;23.332;2023-10-13T01:33:54;12.53;;;10.70;;
6533;SDS011;3300;42.698;23.332;2023-10-13T01:36:24;12.37;;;10.43;;
6533;SDS011;3300;42.698;23.332;2023-10-13T01:38:50;12.37;;;10.67;;
6533;SDS011;3300;42.698;23.332;2023-10-13T01:41:19;12.67;;;10.20;;
6533;SDS011;3300;42.698;23.332;2023-10-13T01:43:46;16.23;;;11.07;;
6533;SDS011;3300;42.698;23.332;2023-10-13T01:46:13;11.90;;;10.10;;
6533;SDS011;3300;42.698;23.332;2023-10-13T01:48:40;12.23;;;10.33;;
6533;SDS011;3300;42.698;23.332;2023-10-13T01:51:08;12.63;;;9.83;;
6533;SDS011;3300;42.698;23.332;2023-10-13T01:53:35;11.50;;;10.30;;
6533;SDS011;3300;42.698;23.332;2023-10-13T01:56:03;13.30;;;10.40;;
6533;SDS011;3300;42.698;23.332;2023-10-13T01:58:36;13.33;;;10.53;;
6533;SDS011;3300;42.698;23.332;2023-10-13T02:01:06;12.70;;;10.50;;
6533;SDS011;3300;42.698;23.332;2023-10-13T02:03:32;13.13;;;10.57;;
6533;SDS011;3300;42.698;23.332;2023-10-13T02:06:06;13.13;;;10.63;;
6533;SDS011;3300;42.698;23.332;2023-10-13T02:08:35;13.10;;;10.80;;
6533;SDS011;3300;42.698;23.332;2023-10-13T02:11:05;15.00;;;10.87;;
6533;SDS011;3300;42.698;23.332;2023-10-13T02:13:32;12.23;;;10.47;;
6533;SDS011;3300;42.698;23.332;2023-10-13T02:16:07;13.90;;;10.57;;
6533;SDS011;3300;42.698;23.332;2023-10-13T02:18:37;12.20;;;10.27;;
6533;SDS011;3300;42.698;23.332;2023-10-13T02:21:08;13.77;;;10.23;;
6533;SDS011;3300;42.698;23.332;2023-10-13T02:23:38;11.90;;;10.57;;
6533;SDS011;3300;42.698;23.332;2023-10-13T02:26:08;12.47;;;10.50;;
6533;SDS011;3300;42.698;23.332;2023-10-13T02:28:37;11.10;;;9.93;;
6533;SDS011;3300;42.698;23.332;2023-10-13T02:31:04;13.43;;;10.40;;
6533;SDS011;3300;42.698;23.332;2023-10-13T02:33:33;12.67;;;10.50;;
6533;SDS011;3300;42.698;23.332;2023-10-13T02:36:02;11.93;;;10.17;;
6533;SDS011;3300;42.698;23.332;2023-10-13T02:38:30;12.47;;;10.60;;
6533;SDS011;3300;42.698;23.332;2023-10-13T02:41:09;12.40;;;10.30;;
6533;SDS011;3300;42.698;23.332;2023-10-13T02:43:36;13.67;;;10.37;;
6533;SDS011;3300;42.698;23.332;2023-10-13T02:46:03;12.10;;;9.73;;
6533;SDS011;3300;42.698;23.332;2023-10-13T02:48:29;12.20;;;10.03;;
6533;SDS011;3300;42.698;23.332;2023-10-13T02:51:06;12.97;;;10.60;;
6533;SDS011;3300;42.698;23.332;2023-10-13T02:53:40;13.27;;;10.50;;
6533;SDS011;3300;42.698;23.332;2023-10-13T02:56:11;14.00;;;10.90;;
6533;SDS011;3300;42.698;23.332;2023-10-13T02:58:38;12.20;;;9.97;;
6533;SDS011;3300;42.698;23.332;2023-10-13T03:01:09;13.00;;;10.57;;
6533;SDS011;3300;42.698;23.332;2023-10-13T03:03:43;13.33;;;10.03;;
6533;SDS011;3300;42.698;23.332;2023-10-13T03:06:14;11.63;;;10.13;;
6533;SDS011;3300;42.698;23.332;2023-10-13T03:08:40;13.80;;;10.53;;
6533;SDS011;3300;42.698;23.332;2023-10-13T03:11:08;12.33;;;10.00;;
6533;SDS011;3300;42.698;23.332;2023-10-13T03:13:35;12.33;;;10.50;;
6533;SDS011;3300;42.698;23.332;2023-10-13T03:16:10;12.47;;;10.43;;
6533;SDS011;3300;42.698;23.332;2023-10-13T03:18:36;12.63;;;10.13;;
6533;SDS011;3300;42.698;23.332;2023-10-13T03:21:03;13.47;;;10.53;;
6533;SDS011;3300;42.698;23.332;2023-10-13T03:23:31;12.33;;;10.20;;
6533;SDS011;3300;42.698;23.332;2023-10-13T03:26:10;14.00;;;10.57;;
6533;SDS011;3300;42.698;23.332;2023-10-13T03:28:37;13.00;;;10.30;;
6533;SDS011;3300;42.698;23.332;2023-10-13T03:31:05;11.83;;;9.97;;
6533;SDS011;3300;42.698;23.332;2023-10-13T03:33:32;12.40;;;10.47;;
6533;SDS011;3300;42.698;23.332;2023-10-13T03:35:59;11.60;;;9.50;;
6533;SDS011;3300;42.698;23.332;2023-10-13T03:38:32;12.70;;;10.33;;
6533;SDS011;3300;42.698;23.332;2023-10-13T03:41:01;13.73;;;10.60;;
6533;SDS011;3300;42.698;23.332;2023-10-13T03:43:37;11.47;;;10.17;;
6533;SDS011;3300;42.698;23.332;2023-10-13T03:46:15;12.47;;;9.97;;
6533;SDS011;3300;42.698;23.332;2023-10-13T03:48:46;11.80;;;10.50;;
6533;SDS011;3300;42.698;23.332;2023-10-13T03:51:20;12.30;;;10.23;;
6533;SDS011;3300;42.698;23.332;2023-10-13T03:53:50;14.37;;;10.70;;
6533;SDS011;3300;42.698;23.332;2023-10-13T03:56:19;12.90;;;10.17;;
6533;SDS011;3300;42.698;23.332;2023-10-13T03:58:53;12.60;;;9.93;;
6533;SDS011;3300;42.698;23.332;2023-10-13T04:01:23;13.23;;;10.57;;
6533;SDS011;3300;42.698;23.332;2023-10-13T04:03:57;11.87;;;9.70;;
6533;SDS011;3300;42.698;23.332;2023-10-13T04:06:29;11.70;;;10.40;;
6533;SDS011;3300;42.698;23.332;2023-10-13T04:09:23;11.43;;;9.90;;
6533;SDS011;3300;42.698;23.332;2023-10-13T04:12:08;11.17;;;9.90;;
6533;SDS011;3300;42.698;23.332;2023-10-13T04:15:06;12.93;;;10.50;;
6533;SDS011;3300;42.698;23.332;2023-10-13T04:17:48;14.07;;;10.70;;
6533;SDS011;3300;42.698;23.332;2023-10-13T04:20:16;11.77;;;9.70;;
6533;SDS011;3300;42.698;23.332;2023-10-13T04:22:58;11.63;;;9.63;;
6533;SDS011;3300;42.698;23.332;2023-10-13T04:25:43;12.93;;;10.27;;
6533;SDS011;3300;42.698;23.332;2023-10-13T04:28:28;11.77;;;10.47;;
6533;SDS011;3300;42.698;23.332;2023-10-13T04:31:02;11.83;;;10.20;;
6533;SDS011;3300;42.698;23.332;2023-10-13T04:33:39;12.17;;;9.97;;
6533;SDS011;3300;42.698;23.332;2023-10-13T04:36:20;12.57;;;10.00;;
6533;SDS011;3300;42.698;23.332;2023-10-13T04:38:48;11.97;;;10.13;;
6533;SDS011;3300;42.698;23.332;2023-10-13T04:41:35;12.70;;;10.50;;
6533;SDS011;3300;42.698;23.332;2023-10-13T04:44:04;11.43;;;9.93;;
6533;SDS011;3300;42.698;23.332;2023-10-13T04:46:51;11.67;;;9.97;;
6533;SDS011;3300;42.698;23.332;2023-10-13T04:49:34;12.70;;;10.60;;
6533;SDS011;3300;42.698;23.332;2023-10-13T04:52:15;13.57;;;10.10;;
6533;SDS011;3300;42.698;23.332;2023-10-13T04:55:03;13.30;;;9.60;;
6533;SDS011;3300;42.698;23.332;2023-10-13T04:58:00;11.07;;;9.83;;
6533;SDS011;3300;42.698;23.332;2023-10-13T05:00:36;11.70;;;10.17;;
6533;SDS011;3300;42.698;23.332;2023-10-13T05:03:20;11.33;;;10.10;;
6533;SDS011;3300;42.698;23.332;2023-10-13T05:06:18;11.07;;;9.67;;
6533;SDS011;3300;42.698;23.332;2023-10-13T05:09:02;11.90;;;9.80;;
6533;SDS011;3300;42.698;23.332;2023-10-13T05:11:46;13.73;;;10.50;;
6533;SDS011;3300;42.698;23.332;2023-10-13T05:14:32;13.17;;;10.10;;
6533;SDS011;3300;42.698;23.332;2023-10-13T05:17:21;12.47;;;9.90;;
6533;SDS011;3300;42.698;23.332;2023-10-13T05:20:06;13.27;;;10.17;;
6533;SDS011;3300;42.698;23.332;2023-10-13T05:22:51;12.93;;;9.93;;
6533;SDS011;3300;42.698;23.332;2023-10-13T05:25:36;11.67;;;9.70;;
6533;SDS011;3300;42.698;23.332;2023-10-13T05:28:20;11.83;;;10.10;;
6533;SDS011;3300;42.698;23.332;2023-10-13T05:31:06;12.43;;;10.07;;
6533;SDS011;3300;42.698;23.332;2023-10-13T05:33:50;11.97;;;9.83;;
6533;SDS011;3300;42.698;23.332;2023-10-13T05:36:34;10.77;;;9.60;;
6533;SDS011;3300;42.698;23.332;2023-10-13T05:39:18;12.37;;;10.30;;
6533;SDS011;3300;42.698;23.332;2023-10-13T05:42:02;12.33;;;9.63;;
6533;SDS011;3300;42.698;23.332;2023-10-13T05:44:46;12.10;;;9.90;;
6533;SDS011;3300;42.698;23.332;2023-10-13T05:47:43;12.33;;;10.03;;
6533;SDS011;3300;42.698;23.332;2023-10-13T05:50:14;15.40;;;10.03;;
6533;SDS011;3300;42.698;23.332;2023-10-13T05:53:14;12.30;;;10.00;;
6533;SDS011;3300;42.698;23.332;2023-10-13T05:56:03;11.80;;;9.87;;
6533;SDS011;3300;42.698;23.332;2023-10-13T05:58:47;11.57;;;10.07;;
6533;SDS011;3300;42.698;23.332;2023-10-13T06:01:31;14.43;;;10.50;;
6533;SDS011;3300;42.698;23.332;2023-10-13T06:04:17;13.93;;;10.10;;
6533;SDS011;3300;42.698;23.332;2023-10-13T06:07:01;13.20;;;10.30;;
6533;SDS011;3300;42.698;23.332;2023-10-13T06:09:45;12.07;;;10.40;;
6533;SDS011;3300;42.698;23.332;2023-10-13T06:12:29;13.70;;;10.23;;
6533;SDS011;3300;42.698;23.332;2023-10-13T06:15:13;13.27;;;10.37;;
6533;SDS011;3300;42.698;23.332;2023-10-13T06:17:58;12.43;;;10.13;;
6533;SDS011;3300;42.698;23.332;2023-10-13T06:20:44;12.40;;;9.90;;
6533;SDS011;3300;42.698;23.332;2023-10-13T06:23:28;12.53;;;9.70;;
6533;SDS011;3300;42.698;23.332;2023-10-13T06:26:12;13.37;;;10.33;;
6533;SDS011;3300;42.698;23.332;2023-10-13T06:28:56;12.87;;;10.23;;
6533;SDS011;3300;42.698;23.332;2023-10-13T06:31:23;11.23;;;10.03;;
6533;SDS011;3300;42.698;23.332;2023-10-13T06:33:51;11.80;;;10.07;;
6533;SDS011;3300;42.698;23.332;2023-10-13T06:36:21;12.73;;;10.17;;
6533;SDS011;3300;42.698;23.332;2023-10-13T06:38:48;12.03;;;10.23;;
6533;SDS011;3300;42.698;23.332;2023-10-13T06:41:41;12.80;;;10.07;;
6533;SDS011;3300;42.698;23.332;2023-10-13T06:44:09;14.43;;;10.17;;
6533;SDS011;3300;42.698;23.332;2023-10-13T06:46:40;14.80;;;10.63;;
6533;SDS011;3300;42.698;23.332;2023-10-13T06:49:08;11.17;;;9.80;;
6533;SDS011;3300;42.698;23.332;2023-10-13T06:51:37;11.90;;;9.70;;
6533;SDS011;3300;42.698;23.332;2023-10-13T06:54:05;11.20;;;10.00;;
6533;SDS011;3300;42.698;23.332;2023-10-13T06:56:36;13.60;;;10.03;;
6533;SDS011;3300;42.698;23.332;2023-10-13T06:59:04;11.37;;;10.17;;
6533;SDS011;3300;42.698;23.332;2023-10-13T07:01:31;10.67;;;9.30;;
6533;SDS011;3300;42.698;23.332;2023-10-13T07:04:03;13.07;;;10.10;;
6533;SDS011;3300;42.698;23.332;2023-10-13T07:06:31;13.90;;;10.27;;
6533;SDS011;3300;42.698;23.332;2023-10-13T07:09:00;14.33;;;10.20;;
6533;SDS011;3300;42.698;23.332;2023-10-13T07:11:29;15.00;;;10.40;;
6533;SDS011;3300;42.698;23.332;2023-10-13T07:14:00;14.30;;;10.50;;
6533;SDS011;3300;42.698;23.332;2023-10-13T07:16:35;12.83;;;10.33;;
6533;SDS011;3300;42.698;23.332;2023-10-13T07:19:03;12.30;;;10.07;;
6533;SDS011;3300;42.698;23.332;2023-10-13T07:21:31;11.13;;;9.67;;
6533;SDS011;3300;42.698;23.332;2023-10-13T07:24:00;12.23;;;10.30;;
6533;SDS011;3300;42.698;23.332;2023-10-13T07:26:33;11.90;;;10.33;;
6533;SDS011;3300;42.698;23.332;2023-10-13T07:29:07;17.53;;;12.60;;
6533;SDS011;3300;42.698;23.332;2023-10-13T07:31:34;18.00;;;12.30;;
6533;SDS011;3300;42.698;23.332;2023-10-13T07:34:03;17.57;;;11.87;;
6533;SDS011;3300;42.698;23.332;2023-10-13T07:36:38;18.77;;;12.63;;
6533;SDS011;3300;42.698;23.332;2023-10-13T07:39:07;18.97;;;12.93;;
6533;SDS011;3300;42.698;23.332;2023-10-13T07:41:46;18.23;;;13.07;;
6533;SDS011;3300;42.698;23.332;2023-10-13T07:44:17;20.63;;;14.20;;
6533;SDS011;3300;42.698;23.332;2023-10-13T07:46:50;20.73;;;13.93;;
6533;SDS011;3300;42.698;23.332;2023-10-13T07:49:31;20.50;;;14.33;;
6533;SDS011;3300;42.698;23.332;2023-10-13T07:52:02;24.10;;;14.83;;
6533;SDS011;3300;42.698;23.332;2023-10-13T07:54:44;22.67;;;14.50;;
6533;SDS011;3300;42.698;23.332;2023-10-13T07:57:14;25.93;;;13.80;;
6533;SDS011;3300;42.698;23.332;2023-10-13T07:59:42;22.53;;;13.57;;
6533;SDS011;3300;42.698;23.332;2023-10-13T08:02:17;23.60;;;14.13;;
6533;SDS011;3300;42.698;23.332;2023-10-13T08:04:58;30.73;;;14.80;;
6533;SDS011;3300;42.698;23.332;2023-10-13T08:07:24;19.33;;;12.00;;
6533;SDS011;3300;42.698;23.332;2023-10-13T08:09:54;15.17;;;11.93;;
6533;SDS011;3300;42.698;23.332;2023-10-13T08:12:24;17.87;;;11.73;;
6533;SDS011;3300;42.698;23.332;2023-10-13T08:14:55;20.73;;;11.30;;
6533;SDS011;3300;42.698;23.332;2023-10-13T08:17:38;19.17;;;12.20;;
6533;SDS011;3300;42.698;23.332;2023-10-13T08:20:09;17.13;;;12.43;;
6533;SDS011;3300;42.698;23.332;2023-10-13T08:22:39;19.10;;;12.37;;
6533;SDS011;3300;42.698;23.332;2023-10-13T08:25:14;16.63;;;11.90;;
6533;SDS011;3300;42.698;23.332;2023-10-13T08:28:09;19.03;;;12.80;;
6533;SDS011;3300;42.698;23.332;2023-10-13T08:30:49;21.20;;;12.00;;
6533;SDS011;3300;42.698;23.332;2023-10-13T08:33:21;16.80;;;11.60;;
6533;SDS011;3300;42.698;23.332;2023-10-13T08:35:52;17.80;;;12.07;;
6533;SDS011;3300;42.698;23.332;2023-10-13T08:38:43;18.27;;;11.83;;
6533;SDS011;3300;42.698;23.332;2023-10-13T08:41:18;20.63;;;11.77;;
6533;SDS011;3300;42.698;23.332;2023-10-13T08:44:02;22.60;;;12.10;;
6533;SDS011;3300;42.698;23.332;2023-10-13T08:46:30;18.23;;;12.07;;
6533;SDS011;3300;42.698;23.332;2023-10-13T08:49:17;17.27;;;11.27;;
6533;SDS011;3300;42.698;23.332;2023-10-13T08:51:48;16.73;;;11.70;;
6533;SDS011;3300;42.698;23.332;2023-10-13T08:54:16;15.70;;;11.30;;
6533;SDS011;3300;42.698;23.332;2023-10-13T08:57:00;16.73;;;11.43;;
6533;SDS011;3300;42.698;23.332;2023-10-13T08:59:45;17.67;;;11.00;;
6533;SDS011;3300;42.698;23.332;2023-10-13T09:02:18;15.13;;;11.60;;
6533;SDS011;3300;42.698;23.332;2023-10-13T09:04:56;15.87;;;12.43;;
6533;SDS011;3300;42.698;23.332;2023-10-13T09:07:25;16.80;;;11.67;;
6533;SDS011;3300;42.698;23.332;2023-10-13T09:09:52;17.07;;;11.67;;
6533;SDS011;3300;42.698;23.332;2023-10-13T09:12:38;17.90;;;11.60;;
6533;SDS011;3300;42.698;23.332;2023-10-13T09:15:28;16.97;;;11.70;;
6533;SDS011;3300;42.698;23.332;2023-10-13T09:18:23;19.27;;;11.37;;
6533;SDS011;3300;42.698;23.332;2023-10-13T09:21:08;19.57;;;12.00;;
6533;SDS011;3300;42.698;23.332;2023-10-13T09:23:48;16.27;;;11.27;;
6533;SDS011;3300;42.698;23.332;2023-10-13T09:26:32;16.60;;;11.50;;
6533;SDS011;3300;42.698;23.332;2023-10-13T09:29:02;15.80;;;11.87;;
6533;SDS011;3300;42.698;23.332;2023-10-13T09:31:29;16.37;;;11.03;;
6533;SDS011;3300;42.698;23.332;2023-10-13T09:33:57;19.10;;;12.20;;
6533;SDS011;3300;42.698;23.332;2023-10-13T09:36:24;14.57;;;11.13;;
6533;SDS011;3300;42.698;23.332;2023-10-13T09:38:51;16.10;;;11.40;;
6533;SDS011;3300;42.698;23.332;2023-10-13T09:41:37;16.63;;;11.27;;
6533;SDS011;3300;42.698;23.332;2023-10-13T09:44:07;18.10;;;11.80;;
6533;SDS011;3300;42.698;23.332;2023-10-13T09:46:36;16.70;;;11.63;;
6533;SDS011;3300;42.698;23.332;2023-10-13T09:49:12;15.63;;;11.17;;
6533;SDS011;3300;42.698;23.332;2023-10-13T09:51:47;18.10;;;11.20;;
6533;SDS011;3300;42.698;23.332;2023-10-13T09:54:16;15.70;;;11.17;;
6533;SDS011;3300;42.698;23.332;2023-10-13T09:56:45;14.27;;;11.53;;
6533;SDS011;3300;42.698;23.332;2023-10-13T09:59:20;19.07;;;11.70;;
6533;SDS011;3300;42.698;23.332;2023-10-13T10:01:49;18.50;;;10.80;;
6533;SDS011;3300;42.698;23.332;2023-10-13T10:04:17;14.23;;;11.27;;
6533;SDS011;3300;42.698;23.332;2023-10-13T10:06:51;17.70;;;11.67;;
6533;SDS011;3300;42.698;23.332;2023-10-13T10:09:17;16.37;;;11.23;;
6533;SDS011;3300;42.698;23.332;2023-10-13T10:14:56;16.43;;;10.97;;
6533;SDS011;3300;42.698;23.332;2023-10-13T10:17:39;13.97;;;11.27;;
6533;SDS011;3300;42.698;23.332;2023-10-13T10:20:07;18.77;;;11.17;;
6533;SDS011;3300;42.698;23.332;2023-10-13T10:22:54;15.57;;;11.33;;
6533;SDS011;3300;42.698;23.332;2023-10-13T10:25:28;14.40;;;11.17;;
6533;SDS011;3300;42.698;23.332;2023-10-13T10:28:00;15.63;;;11.87;;
6533;SDS011;3300;42.698;23.332;2023-10-13T10:30:32;15.80;;;11.20;;
6533;SDS011;3300;42.698;23.332;2023-10-13T10:33:00;16.10;;;11.30;;
6533;SDS011;3300;42.698;23.332;2023-10-13T10:35:32;17.73;;;11.20;;
6533;SDS011;3300;42.698;23.332;2023-10-13T10:38:07;14.07;;;10.83;;
6533;SDS011;3300;42.698;23.332;2023-10-13T10:40:50;14.13;;;10.93;;
6533;SDS011;3300;42.698;23.332;2023-10-13T10:43:22;15.40;;;11.37;;
6533;SDS011;3300;42.698;23.332;2023-10-13T10:45:55;17.00;;;11.20;;
6533;SDS011;3300;42.698;23.332;2023-10-13T10:48:26;16.53;;;11.10;;
6533;SDS011;3300;42.698;23.332;2023-10-13T10:50:59;17.70;;;11.60;;
6533;SDS011;3300;42.698;23.332;2023-10-13T10:53:33;13.93;;;10.67;;
6533;SDS011;3300;42.698;23.332;2023-10-13T10:56:08;17.93;;;11.27;;
6533;SDS011;3300;42.698;23.332;2023-10-13T10:58:45;15.37;;;11.23;;
6533;SDS011;3300;42.698;23.332;2023-10-13T11:01:13;15.80;;;10.97;;
6533;SDS011;3300;42.698;23.332;2023-10-13T11:03:52;15.03;;;10.80;;
6533;SDS011;3300;42.698;23.332;2023-10-13T11:06:22;13.33;;;10.67;;
6533;SDS011;3300;42.698;23.332;2023-10-13T11:09:00;15.37;;;10.50;;
6533;SDS011;3300;42.698;23.332;2023-10-13T11:11:29;14.13;;;10.77;;
6533;SDS011;3300;42.698;23.332;2023-10-13T11:14:00;14.60;;;10.80;;
6533;SDS011;3300;42.698;23.332;2023-10-13T11:16:46;15.47;;;11.10;;
6533;SDS011;3300;42.698;23.332;2023-10-13T11:19:16;13.40;;;11.50;;
6533;SDS011;3300;42.698;23.332;2023-10-13T11:21:45;13.60;;;10.67;;
6533;SDS011;3300;42.698;23.332;2023-10-13T11:24:13;14.60;;;10.70;;
6533;SDS011;3300;42.698;23.332;2023-10-13T11:26:42;13.13;;;10.63;;
6533;SDS011;3300;42.698;23.332;2023-10-13T11:29:15;15.97;;;11.10;;
6533;SDS011;3300;42.698;23.332;2023-10-13T11:31:46;12.13;;;10.10;;
6533;SDS011;3300;42.698;23.332;2023-10-13T11:34:18;16.67;;;10.53;;
6533;SDS011;3300;42.698;23.332;2023-10-13T11:36:46;15.73;;;11.37;;
6533;SDS011;3300;42.698;23.332;2023-10-13T11:39:12;17.40;;;10.97;;
6533;SDS011;3300;42.698;23.332;2023-10-13T11:41:44;15.13;;;10.93;;
6533;SDS011;3300;42.698;23.332;2023-10-13T11:44:19;14.00;;;11.10;;
6533;SDS011;3300;42.698;23.332;2023-10-13T11:46:58;14.80;;;11.20;;
6533;SDS011;3300;42.698;23.332;2023-10-13T11:49:53;14.57;;;10.73;;
6533;SDS011;3300;42.698;23.332;2023-10-13T11:52:24;15.27;;;10.23;;
6533;SDS011;3300;42.698;23.332;2023-10-13T11:54:55;15.83;;;11.23;;
6533;SDS011;3300;42.698;23.332;2023-10-13T11:57:21;17.67;;;10.73;;
6533;SDS011;3300;42.698;23.332;2023-10-13T11:59:49;14.67;;;10.53;;
6533;SDS011;3300;42.698;23.332;2023-10-13T12:02:22;16.67;;;10.30;;
6533;SDS011;3300;42.698;23.332;2023-10-13T12:05:06;14.23;;;10.77;;
6533;SDS011;3300;42.698;23.332;2023-10-13T12:07:38;13.57;;;10.80;;
6533;SDS011;3300;42.698;23.332;2023-10-13T12:10:16;13.67;;;10.60;;
6533;SDS011;3300;42.698;23.332;2023-10-13T12:12:57;13.87;;;10.80;;
6533;SDS011;3300;42.698;23.332;2023-10-13T12:15:30;15.10;;;10.87;;
6533;SDS011;3300;42.698;23.332;2023-10-13T12:18:04;13.17;;;10.70;;
6533;SDS011;3300;42.698;23.332;2023-10-13T12:20:30;13.33;;;10.23;;
6533;SDS011;3300;42.698;23.332;2023-10-13T12:23:01;12.60;;;10.57;;
6533;SDS011;3300;42.698;23.332;2023-10-13T12:25:40;13.43;;;10.33;;
6533;SDS011;3300;42.698;23.332;2023-10-13T12:28:20;12.47;;;10.37;;
6533;SDS011;3300;42.698;23.332;2023-10-13T12:30:48;14.00;;;10.50;;
6533;SDS011;3300;42.698;23.332;2023-10-13T12:33:19;13.77;;;10.57;;
6533;SDS011;3300;42.698;23.332;2023-10-13T12:35:58;13.10;;;10.00;;
6533;SDS011;3300;42.698;23.332;2023-10-13T12:38:32;11.53;;;10.30;;
6533;SDS011;3300;42.698;23.332;2023-10-13T12:41:31;12.90;;;10.30;;
6533;SDS011;3300;42.698;23.332;2023-10-13T12:44:16;14.80;;;10.27;;
6533;SDS011;3300;42.698;23.332;2023-10-13T12:47:00;12.40;;;10.67;;
6533;SDS011;3300;42.698;23.332;2023-10-13T12:49:45;12.47;;;10.30;;
6533;SDS011;3300;42.698;23.332;2023-10-13T12:52:24;13.57;;;10.30;;
6533;SDS011;3300;42.698;23.332;2023-10-13T12:54:52;12.93;;;10.20;;
6533;SDS011;3300;42.698;23.332;2023-10-13T12:57:31;13.83;;;10.27;;
6533;SDS011;3300;42.698;23.332;2023-10-13T12:59:58;11.43;;;9.53;;
6533;SDS011;3300;42.698;23.332;2023-10-13T13:02:25;12.80;;;10.27;;
6533;SDS011;3300;42.698;23.332;2023-10-13T13:04:54;12.73;;;9.40;;
6533;SDS011;3300;42.698;23.332;2023-10-13T13:07:30;11.97;;;9.67;;
6533;SDS011;3300;42.698;23.332;2023-10-13T13:10:08;13.23;;;10.23;;
6533;SDS011;3300;42.698;23.332;2023-10-13T13:12:36;13.30;;;10.07;;
6533;SDS011;3300;42.698;23.332;2023-10-13T13:15:04;13.57;;;10.00;;
6533;SDS011;3300;42.698;23.332;2023-10-13T13:17:34;12.07;;;9.60;;
6533;SDS011;3300;42.698;23.332;2023-10-13T13:20:02;13.13;;;10.17;;
6533;SDS011;3300;42.698;23.332;2023-10-13T13:22:36;14.77;;;10.50;;
6533;SDS011;3300;42.698;23.332;2023-10-13T13:25:04;10.97;;;9.13;;
6533;SDS011;3300;42.698;23.332;2023-10-13T13:27:35;13.80;;;9.93;;
6533;SDS011;3300;42.698;23.332;2023-10-13T13:30:07;13.00;;;9.60;;
6533;SDS011;3300;42.698;23.332;2023-10-13T13:32:38;12.57;;;9.73;;
6533;SDS011;3300;42.698;23.332;2023-10-13T13:35:07;12.50;;;9.33;;
6533;SDS011;3300;42.698;23.332;2023-10-13T13:37:39;12.43;;;9.90;;
6533;SDS011;3300;42.698;23.332;2023-10-13T13:40:08;10.93;;;9.10;;
6533;SDS011;3300;42.698;23.332;2023-10-13T13:42:46;10.83;;;8.97;;
6533;SDS011;3300;42.698;23.332;2023-10-13T13:45:13;12.43;;;9.80;;
6533;SDS011;3300;42.698;23.332;2023-10-13T13:47:47;15.13;;;10.60;;
6533;SDS011;3300;42.698;23.332;2023-10-13T13:50:20;12.20;;;9.17;;
6533;SDS011;3300;42.698;23.332;2023-10-13T13:52:49;12.07;;;9.70;;
6533;SDS011;3300;42.698;23.332;2023-10-13T13:55:18;15.00;;;9.80;;
6533;SDS011;3300;42.698;23.332;2023-10-13T13:57:45;11.63;;;9.57;;
6533;SDS011;3300;42.698;23.332;2023-10-13T14:00:15;12.20;;;9.20;;
6533;SDS011;3300;42.698;23.332;2023-10-13T14:02:48;12.50;;;9.67;;
6533;SDS011;3300;42.698;23.332;2023-10-13T14:05:15;12.80;;;9.40;;
6533;SDS011;3300;42.698;23.332;2023-10-13T14:07:44;13.13;;;9.70;;
6533;SDS011;3300;42.698;23.332;2023-10-13T14:10:15;12.73;;;9.60;;
6533;SDS011;3300;42.698;23.332;2023-10-13T14:12:57;13.33;;;9.20;;
6533;SDS011;3300;42.698;23.332;2023-10-13T14:15:32;11.73;;;9.40;;
6533;SDS011;3300;42.698;23.332;2023-10-13T14:18:05;11.23;;;9.50;;
6533;SDS011;3300;42.698;23.332;2023-10-13T14:20:38;11.23;;;8.93;;
6533;SDS011;3300;42.698;23.332;2023-10-13T14:23:07;11.97;;;9.57;;
6533;SDS011;3300;42.698;23.332;2023-10-13T14:25:36;10.80;;;9.37;;
6533;SDS011;3300;42.698;23.332;2023-10-13T14:28:04;11.47;;;9.63;;
6533;SDS011;3300;42.698;23.332;2023-10-13T14:30:32;12.37;;;9.20;;
6533;SDS011;3300;42.698;23.332;2023-10-13T14:32:58;11.30;;;8.63;;
6533;SDS011;3300;42.698;23.332;2023-10-13T14:35:26;12.57;;;9.77;;
6533;SDS011;3300;42.698;23.332;2023-10-13T14:37:53;12.33;;;9.27;;
6533;SDS011;3300;42.698;23.332;2023-10-13T14:40:21;11.10;;;9.17;;
6533;SDS011;3300;42.698;23.332;2023-10-13T14:42:48;10.03;;;8.80;;
6533;SDS011;3300;42.698;23.332;2023-10-13T14:45:15;11.43;;;9.03;;
6533;SDS011;3300;42.698;23.332;2023-10-13T14:47:42;10.90;;;8.97;;
6533;SDS011;3300;42.698;23.332;2023-10-13T14:50:10;11.73;;;9.27;;
6533;SDS011;3300;42.698;23.332;2023-10-13T14:52:44;11.60;;;8.73;;
6533;SDS011;3300;42.698;23.332;2023-10-13T14:55:12;13.00;;;9.27;;
6533;SDS011;3300;42.698;23.332;2023-10-13T14:57:46;11.80;;;9.23;;
6533;SDS011;3300;42.698;23.332;2023-10-13T15:00:15;12.93;;;9.13;;
6533;SDS011;3300;42.698;23.332;2023-10-13T15:02:50;10.47;;;8.80;;
6533;SDS011;3300;42.698;23.332;2023-10-13T15:05:18;12.17;;;8.67;;
6533;SDS011;3300;42.698;23.332;2023-10-13T15:07:44;11.70;;;9.20;;
6533;SDS011;3300;42.698;23.332;2023-10-13T15:10:12;10.90;;;8.70;;
6533;SDS011;3300;42.698;23.332;2023-10-13T15:12:40;10.67;;;8.90;;
6533;SDS011;3300;42.698;23.332;2023-10-13T15:15:11;13.67;;;9.40;;
6533;SDS011;3300;42.698;23.332;2023-10-13T15:17:41;11.50;;;8.67;;
6533;SDS011;3300;42.698;23.332;2023-10-13T15:20:08;12.27;;;9.03;;